createdAt,value
2019-03-03T00:01:13.909Z,34.70
2019-03-03T00:03:43.356Z,33.33
2019-03-03T00:06:12.815Z,34.00
2019-03-03T00:08:42.367Z,31.77
2019-03-03T00:11:11.983Z,33.90
2019-03-03T00:13:41.430Z,36.50
2019-03-03T00:16:10.920Z,34.47
2019-03-03T00:18:40.367Z,33.03
2019-03-03T00:21:09.861Z,31.43
2019-03-03T00:23:39.342Z,32.97
2019-03-03T00:26:08.841Z,34.23
2019-03-03T00:28:38.342Z,31.87
2019-03-03T00:31:07.796Z,32.10
2019-03-03T00:33:37.234Z,34.00
2019-03-03T00:36:06.718Z,33.27
2019-03-03T00:39:01.294Z,33.50
2019-03-03T00:41:57.227Z,34.07
2019-03-03T00:44:45.987Z,33.30
2019-03-03T00:47:39.084Z,32.37
2019-03-03T00:50:17.035Z,31.03
2019-03-03T00:53:00.700Z,32.77
2019-03-03T00:55:47.064Z,32.87
2019-03-03T00:58:30.788Z,33.77
2019-03-03T01:01:28.416Z,33.67
2019-03-03T01:04:16.875Z,32.70
2019-03-03T01:07:04.869Z,31.87
2019-03-03T01:09:53.620Z,33.77
2019-03-03T01:12:48.166Z,33.07
2019-03-03T01:15:42.879Z,34.63
2019-03-03T01:18:37.258Z,32.80
2019-03-03T01:21:31.647Z,33.73
2019-03-03T01:24:31.939Z,34.27
2019-03-03T01:27:01.444Z,34.60
2019-03-03T01:29:30.993Z,34.87
2019-03-03T01:32:00.777Z,34.10
2019-03-03T01:34:30.248Z,33.63
2019-03-03T01:36:59.781Z,33.53
2019-03-03T01:39:29.473Z,34.13
2019-03-03T01:41:58.981Z,34.00
2019-03-03T01:44:28.525Z,31.70
2019-03-03T01:46:58.050Z,36.00
2019-03-03T01:49:27.494Z,34.67
2019-03-03T01:51:56.986Z,33.23
2019-03-03T01:54:26.787Z,33.97
2019-03-03T01:56:56.243Z,35.13
2019-03-03T01:59:25.958Z,34.10
2019-03-03T02:01:55.437Z,33.97
2019-03-03T02:04:24.881Z,33.10
2019-03-03T02:06:54.691Z,34.47
2019-03-03T02:09:24.477Z,31.17
2019-03-03T02:11:53.967Z,35.33
2019-03-03T02:14:23.440Z,33.00
2019-03-03T02:16:52.881Z,32.40
2019-03-03T02:19:22.372Z,32.63
2019-03-03T02:21:51.879Z,32.00
2019-03-03T02:24:21.335Z,32.43
2019-03-03T02:26:50.812Z,33.07
2019-03-03T02:29:20.283Z,31.80
2019-03-03T02:31:49.765Z,33.53
2019-03-03T02:34:19.215Z,32.17
2019-03-03T02:36:49.167Z,31.33
2019-03-03T02:39:19.411Z,33.10
2019-03-03T02:41:48.859Z,34.07
2019-03-03T02:44:18.390Z,33.87
2019-03-03T02:46:47.877Z,32.70
2019-03-03T02:49:17.326Z,31.20
2019-03-03T02:51:46.769Z,30.93
2019-03-03T02:54:19.257Z,32.27
2019-03-03T02:56:48.738Z,31.13
2019-03-03T02:59:18.215Z,30.97
2019-03-03T03:01:54.903Z,31.73
2019-03-03T03:04:24.381Z,30.40
2019-03-03T03:07:06.932Z,30.40
2019-03-03T03:09:55.418Z,30.73
2019-03-03T03:12:52.733Z,31.17
2019-03-03T03:15:43.928Z,30.37
2019-03-03T03:18:44.540Z,32.17
2019-03-03T03:21:22.089Z,30.43
2019-03-03T03:24:03.294Z,31.73
2019-03-03T03:26:54.479Z,31.27
2019-03-03T03:29:32.569Z,30.37
2019-03-03T03:32:17.961Z,31.03
2019-03-03T03:34:56.845Z,29.57
2019-03-03T03:37:36.016Z,30.23
2019-03-03T03:40:23.106Z,31.03
2019-03-03T03:43:00.314Z,30.23
2019-03-03T03:45:47.322Z,32.03
2019-03-03T03:48:34.458Z,30.37
2019-03-03T03:51:17.009Z,32.57
2019-03-03T03:54:08.315Z,31.97
2019-03-03T03:56:49.516Z,33.23
2019-03-03T03:59:24.287Z,32.40
2019-03-03T04:02:15.960Z,32.53
2019-03-03T04:04:54.515Z,31.80
2019-03-03T04:07:30.032Z,33.57
2019-03-03T04:10:18.434Z,32.00
2019-03-03T04:12:57.133Z,33.77
2019-03-03T04:15:35.807Z,29.10
2019-03-03T04:18:30.085Z,32.07
2019-03-03T04:21:16.297Z,33.47
2019-03-03T04:24:20.078Z,31.30
2019-03-03T04:27:13.525Z,31.83
2019-03-03T04:29:53.138Z,32.97
2019-03-03T04:32:31.382Z,31.17
2019-03-03T04:35:18.358Z,32.80
2019-03-03T04:38:10.631Z,32.37
2019-03-03T04:41:01.848Z,32.10
2019-03-03T04:43:47.228Z,33.40
2019-03-03T04:46:27.319Z,30.50
2019-03-03T04:49:13.468Z,32.90
2019-03-03T04:51:58.074Z,35.23
2019-03-03T04:54:55.613Z,33.97
2019-03-03T04:57:53.332Z,34.97
2019-03-03T05:00:37.184Z,33.67
2019-03-03T05:03:18.417Z,35.70
2019-03-03T05:06:02.958Z,33.60
2019-03-03T05:08:42.319Z,34.47
2019-03-03T05:11:32.240Z,33.00
2019-03-03T05:14:09.792Z,34.90
2019-03-03T05:16:51.413Z,33.53
2019-03-03T05:19:27.534Z,31.03
2019-03-03T05:21:57.033Z,33.67
2019-03-03T05:24:33.859Z,33.73
2019-03-03T05:26:57.780Z,35.07
2019-03-03T05:29:27.241Z,32.30
2019-03-03T05:31:56.754Z,34.40
2019-03-03T05:34:26.224Z,32.67
2019-03-03T05:36:55.670Z,33.07
2019-03-03T05:39:25.161Z,34.27
2019-03-03T05:41:54.645Z,34.87
2019-03-03T05:44:24.109Z,35.90
2019-03-03T05:46:53.596Z,35.23
2019-03-03T05:49:23.052Z,33.83
2019-03-03T05:51:52.485Z,33.07
2019-03-03T05:54:22.007Z,34.60
2019-03-03T05:56:51.482Z,34.70
2019-03-03T05:59:20.925Z,33.63
2019-03-03T06:01:50.414Z,36.87
2019-03-03T06:04:20.345Z,36.83
2019-03-03T06:06:49.817Z,34.90
2019-03-03T06:09:19.328Z,36.13
2019-03-03T06:11:48.789Z,32.50
2019-03-03T06:14:18.250Z,35.03
2019-03-03T06:16:47.767Z,33.93
2019-03-03T06:19:17.361Z,33.50
2019-03-03T06:21:46.828Z,32.97
2019-03-03T06:24:16.339Z,34.73
2019-03-03T06:26:45.796Z,31.90
2019-03-03T06:29:15.250Z,30.67
2019-03-03T06:31:44.732Z,33.63
2019-03-03T06:34:14.222Z,33.93
2019-03-03T06:36:43.935Z,33.23
2019-03-03T06:39:13.435Z,31.60
2019-03-03T06:41:43.093Z,33.17
2019-03-03T06:44:12.623Z,33.33
2019-03-03T06:46:42.067Z,33.63
2019-03-03T06:49:11.554Z,33.53
2019-03-03T06:51:41.040Z,33.93
2019-03-03T06:54:10.494Z,32.30
2019-03-03T06:56:39.942Z,36.13
2019-03-03T06:59:09.467Z,35.53
2019-03-03T07:01:38.915Z,34.40
2019-03-03T07:04:08.356Z,32.50
2019-03-03T07:06:37.875Z,33.80
2019-03-03T07:09:08.029Z,34.30
2019-03-03T07:11:37.522Z,34.07
2019-03-03T07:14:07.162Z,33.17
2019-03-03T07:16:36.668Z,34.80
2019-03-03T07:19:06.537Z,35.60
2019-03-03T07:21:36.019Z,32.67
2019-03-03T07:24:05.505Z,32.87
2019-03-03T07:26:35.009Z,34.13
2019-03-03T07:29:04.515Z,32.83
2019-03-03T07:31:33.994Z,34.40
2019-03-03T07:34:04.524Z,34.23
2019-03-03T07:36:33.950Z,35.60
2019-03-03T07:39:04.505Z,31.23
2019-03-03T07:41:34.053Z,33.20
2019-03-03T07:44:03.641Z,32.50
2019-03-03T07:46:33.112Z,35.53
2019-03-03T07:49:02.688Z,32.03
2019-03-03T07:51:32.144Z,34.07
2019-03-03T07:54:01.647Z,33.63
2019-03-03T07:56:31.225Z,33.07
2019-03-03T07:59:00.659Z,34.50
2019-03-03T08:01:30.130Z,33.87
2019-03-03T08:03:59.629Z,34.03
2019-03-03T08:06:29.076Z,35.00
2019-03-03T08:08:58.524Z,33.20
2019-03-03T08:11:28.028Z,33.57
2019-03-03T08:13:57.513Z,32.10
2019-03-03T08:16:27.324Z,33.50
2019-03-03T08:18:56.840Z,33.80
2019-03-03T08:21:26.332Z,33.03
2019-03-03T08:23:55.814Z,32.30
2019-03-03T08:26:25.343Z,33.27
2019-03-03T08:28:55.994Z,34.07
2019-03-03T08:31:25.661Z,32.17
2019-03-03T08:33:55.664Z,33.67
2019-03-03T08:36:25.129Z,32.67
2019-03-03T08:38:54.689Z,31.73
2019-03-03T08:41:24.392Z,32.37
2019-03-03T08:44:04.370Z,31.23
2019-03-03T08:47:07.824Z,30.97
2019-03-03T08:49:56.303Z,31.63
2019-03-03T08:52:50.073Z,30.33
2019-03-03T08:55:38.554Z,31.50
2019-03-03T08:58:27.047Z,30.50
2019-03-03T09:01:21.732Z,30.37
2019-03-03T09:04:06.120Z,30.17
2019-03-03T09:06:41.285Z,29.53
2019-03-03T09:09:29.693Z,28.93
2019-03-03T09:12:03.252Z,30.23
2019-03-03T09:14:51.656Z,29.43
2019-03-03T09:17:38.946Z,28.20
2019-03-03T09:20:31.360Z,27.27
2019-03-03T09:23:25.650Z,26.23
2019-03-03T09:26:17.201Z,26.60
2019-03-03T09:29:02.064Z,27.77
2019-03-03T09:31:49.310Z,26.40
2019-03-03T09:34:37.803Z,26.47
2019-03-03T09:37:18.850Z,26.07
2019-03-03T09:40:09.680Z,24.80
2019-03-03T09:42:57.467Z,24.70
2019-03-03T09:45:38.195Z,24.30
2019-03-03T09:48:44.907Z,24.27
2019-03-03T09:51:48.376Z,24.23
2019-03-03T09:54:45.790Z,26.50
2019-03-03T09:57:43.482Z,25.13
2019-03-03T10:00:22.898Z,24.47
2019-03-03T10:03:17.568Z,24.07
2019-03-03T10:06:05.112Z,24.77
2019-03-03T10:08:57.993Z,24.90
2019-03-03T10:11:52.254Z,23.47
2019-03-03T10:14:30.366Z,25.60
2019-03-03T10:17:19.983Z,24.27
2019-03-03T10:20:11.199Z,24.33
2019-03-03T10:22:59.610Z,23.37
2019-03-03T10:25:51.098Z,24.00
2019-03-03T10:28:45.301Z,22.23
2019-03-03T10:31:29.762Z,21.93
2019-03-03T10:34:17.047Z,25.00
2019-03-03T10:37:08.702Z,23.73
2019-03-03T10:40:00.331Z,22.17
2019-03-03T10:42:55.666Z,23.67
2019-03-03T10:45:41.114Z,21.70
2019-03-03T10:48:29.614Z,22.13
2019-03-03T10:51:16.809Z,23.70
2019-03-03T10:53:57.610Z,21.63
2019-03-03T10:56:41.914Z,21.87
2019-03-03T10:59:22.282Z,21.00
2019-03-03T11:02:10.709Z,22.47
2019-03-03T11:04:57.930Z,20.37
2019-03-03T11:07:53.478Z,21.07
2019-03-03T11:10:57.617Z,20.07
2019-03-03T11:13:42.912Z,19.83
2019-03-03T11:16:39.634Z,20.07
2019-03-03T11:19:30.928Z,20.53
2019-03-03T11:22:13.222Z,20.10
2019-03-03T11:24:58.946Z,18.87
2019-03-03T11:28:01.457Z,20.40
2019-03-03T11:30:39.242Z,19.60
2019-03-03T11:33:38.711Z,20.10
2019-03-03T11:36:33.665Z,18.97
2019-03-03T11:39:21.107Z,19.47
2019-03-03T11:42:08.187Z,20.57
2019-03-03T11:44:50.861Z,20.77
2019-03-03T11:47:48.356Z,19.33
2019-03-03T11:50:33.502Z,20.73
2019-03-03T11:53:37.021Z,18.67
2019-03-03T11:56:14.878Z,19.57
2019-03-03T11:58:57.147Z,21.00
2019-03-03T12:01:44.612Z,20.70
2019-03-03T12:04:28.623Z,19.23
2019-03-03T12:07:15.415Z,19.30
2019-03-03T12:10:02.812Z,20.07
2019-03-03T12:12:51.138Z,20.23
2019-03-03T12:15:26.749Z,19.70
2019-03-03T12:18:24.731Z,20.20
2019-03-03T12:21:19.195Z,21.10
2019-03-03T12:24:21.713Z,22.80
2019-03-03T12:27:13.170Z,20.23
2019-03-03T12:30:02.050Z,22.27
2019-03-03T12:32:37.444Z,21.17
2019-03-03T12:35:35.634Z,22.70
2019-03-03T12:38:22.995Z,22.97
2019-03-03T12:41:14.421Z,21.97
2019-03-03T12:43:53.111Z,22.60
2019-03-03T12:46:38.232Z,23.33
2019-03-03T12:49:35.575Z,23.00
2019-03-03T12:52:22.874Z,21.10
2019-03-03T12:55:26.767Z,22.93
2019-03-03T12:58:16.780Z,21.70
2019-03-03T13:01:11.849Z,21.70
2019-03-03T13:04:00.244Z,21.63
2019-03-03T13:06:48.688Z,21.13
2019-03-03T13:09:35.882Z,21.87
2019-03-03T13:12:33.126Z,22.37
2019-03-03T13:15:08.082Z,22.80
2019-03-03T13:18:02.556Z,21.10
2019-03-03T13:20:40.998Z,22.63
2019-03-03T13:23:22.527Z,23.30
2019-03-03T13:26:16.741Z,22.50
2019-03-03T13:28:59.935Z,21.73
2019-03-03T13:31:46.972Z,23.07
2019-03-03T13:34:30.764Z,20.87
2019-03-03T13:37:34.756Z,22.37
2019-03-03T13:40:13.799Z,22.00
2019-03-03T13:42:57.931Z,21.20
2019-03-03T13:45:30.587Z,20.63
2019-03-03T13:48:00.079Z,22.17
2019-03-03T13:50:29.832Z,22.27
2019-03-03T13:52:59.298Z,22.77
2019-03-03T13:55:28.782Z,21.67
2019-03-03T13:57:58.295Z,22.60
2019-03-03T14:00:27.753Z,22.63
2019-03-03T14:02:57.229Z,21.73
2019-03-03T14:05:26.710Z,23.43
2019-03-03T14:07:56.154Z,21.73
2019-03-03T14:10:25.599Z,23.13
2019-03-03T14:12:55.058Z,21.60
2019-03-03T14:15:24.520Z,22.67
2019-03-03T14:17:53.949Z,23.33
2019-03-03T14:20:23.758Z,22.80
2019-03-03T14:22:54.050Z,23.47
2019-03-03T14:25:23.482Z,22.03
2019-03-03T14:27:52.917Z,24.83
2019-03-03T14:30:24.032Z,22.63
2019-03-03T14:32:53.511Z,22.87
2019-03-03T14:35:22.955Z,21.77
2019-03-03T14:37:52.429Z,22.23
2019-03-03T14:40:22.539Z,24.43
2019-03-03T14:42:52.008Z,23.33
2019-03-03T14:45:21.609Z,33.47
2019-03-03T14:47:51.087Z,32.87
2019-03-03T14:50:20.498Z,25.97
2019-03-03T14:52:50.274Z,24.53
2019-03-03T14:55:19.948Z,25.53
2019-03-03T14:57:49.522Z,24.37
2019-03-03T15:00:24.887Z,23.57
2019-03-03T15:02:54.470Z,23.63
2019-03-03T15:05:24.093Z,23.70
2019-03-03T15:07:53.528Z,23.53
2019-03-03T15:10:22.954Z,25.87
2019-03-03T15:12:52.518Z,25.10
2019-03-03T15:15:22.601Z,26.20
2019-03-03T15:17:52.085Z,29.20
2019-03-03T15:20:21.536Z,40.33
2019-03-03T15:22:51.046Z,31.07
2019-03-03T15:25:20.543Z,24.30
2019-03-03T15:27:49.982Z,25.10
2019-03-03T15:30:20.296Z,24.20
2019-03-03T15:32:50.044Z,23.07
2019-03-03T15:35:19.847Z,22.70
2019-03-03T15:37:49.313Z,22.53
2019-03-03T15:40:19.955Z,22.93
2019-03-03T15:42:49.541Z,22.03
2019-03-03T15:45:20.658Z,22.37
2019-03-03T15:47:50.111Z,25.50
2019-03-03T15:50:20.800Z,25.37
2019-03-03T15:52:50.438Z,27.20
2019-03-03T15:55:20.168Z,31.67
2019-03-03T15:57:49.708Z,30.27
2019-03-03T16:00:21.385Z,25.30
2019-03-03T16:02:50.971Z,20.60
2019-03-03T16:05:21.018Z,20.13
2019-03-03T16:07:50.534Z,19.23
2019-03-03T16:10:20.054Z,20.60
2019-03-03T16:12:49.592Z,19.80
2019-03-03T16:15:19.304Z,20.13
2019-03-03T16:17:49.310Z,20.63
2019-03-03T16:20:19.481Z,21.20
2019-03-03T16:22:49.114Z,18.07
2019-03-03T16:25:19.432Z,19.80
2019-03-03T16:27:48.892Z,17.77
2019-03-03T16:30:19.456Z,17.57
2019-03-03T16:32:49.176Z,16.17
2019-03-03T16:35:19.047Z,17.43
2019-03-03T16:37:48.546Z,17.67
2019-03-03T16:40:19.952Z,18.37
2019-03-03T16:42:49.695Z,18.70
2019-03-03T16:45:19.695Z,18.80
2019-03-03T16:47:49.264Z,19.17
2019-03-03T16:50:19.095Z,18.83
2019-03-03T16:52:48.912Z,18.87
2019-03-03T16:55:18.808Z,20.20
2019-03-03T16:57:48.587Z,18.40
2019-03-03T17:00:21.728Z,18.77
2019-03-03T17:02:51.812Z,20.63
2019-03-03T17:05:22.876Z,20.17
2019-03-03T17:07:52.432Z,21.17
2019-03-03T17:10:21.921Z,19.17
2019-03-03T17:12:51.598Z,18.63
2019-03-03T17:15:21.957Z,20.67
2019-03-03T17:17:51.721Z,22.63
2019-03-03T17:20:21.267Z,21.83
2019-03-03T17:22:50.907Z,21.50
2019-03-03T17:25:21.561Z,19.93
2019-03-03T17:27:51.130Z,18.00
2019-03-03T17:30:21.955Z,21.13
2019-03-03T17:32:51.614Z,19.43
2019-03-03T17:35:21.502Z,20.07
2019-03-03T17:37:51.073Z,21.40
2019-03-03T17:40:21.240Z,22.27
2019-03-03T17:42:50.831Z,22.10
2019-03-03T17:45:21.033Z,20.77
2019-03-03T17:47:50.992Z,21.63
2019-03-03T17:50:21.340Z,19.97
2019-03-03T17:52:50.839Z,20.47
2019-03-03T17:55:20.341Z,21.27
2019-03-03T17:57:49.885Z,20.83
2019-03-03T18:00:21.652Z,19.13
2019-03-03T18:02:51.152Z,19.57
2019-03-03T18:05:21.092Z,17.13
2019-03-03T18:07:50.737Z,18.20
2019-03-03T18:10:20.399Z,19.13
2019-03-03T18:12:49.865Z,19.20
2019-03-03T18:15:19.357Z,17.63
2019-03-03T18:17:50.576Z,16.70
2019-03-03T18:20:20.295Z,17.57
2019-03-03T18:22:49.780Z,18.20
2019-03-03T18:25:19.297Z,18.00
2019-03-03T18:27:48.750Z,18.27
2019-03-03T18:30:20.040Z,19.53
2019-03-03T18:32:49.535Z,20.33
2019-03-03T18:35:18.998Z,16.63
2019-03-03T18:37:48.747Z,19.17
2019-03-03T18:40:19.422Z,18.43
2019-03-03T18:42:48.955Z,18.10
2019-03-03T18:45:18.528Z,17.43
2019-03-03T18:47:48.374Z,19.10
2019-03-03T18:50:18.257Z,19.33
2019-03-03T18:52:47.748Z,19.53
2019-03-03T18:55:17.510Z,19.10
2019-03-03T18:57:47.061Z,21.63
2019-03-03T19:00:18.662Z,19.77
2019-03-03T19:02:48.113Z,19.33
2019-03-03T19:05:17.813Z,19.87
2019-03-03T19:07:47.578Z,19.67
2019-03-03T19:10:17.861Z,20.97
2019-03-03T19:12:47.467Z,21.83
2019-03-03T19:15:18.021Z,23.37
2019-03-03T19:17:48.001Z,22.37
2019-03-03T19:20:19.031Z,21.57
2019-03-03T19:22:48.606Z,23.13
2019-03-03T19:25:20.132Z,21.53
2019-03-03T19:27:49.575Z,23.83
2019-03-03T19:30:24.341Z,24.90
2019-03-03T19:33:06.000Z,22.00
2019-03-03T19:35:35.739Z,21.17
2019-03-03T19:38:05.406Z,24.13
2019-03-03T19:40:34.862Z,21.73
2019-03-03T19:43:04.577Z,21.73
2019-03-03T19:45:34.457Z,22.63
2019-03-03T19:48:03.900Z,22.13
2019-03-03T19:50:33.392Z,23.77
2019-03-03T19:53:02.882Z,25.03
2019-03-03T19:55:32.365Z,21.57
2019-03-03T19:58:01.822Z,24.33
2019-03-03T20:00:36.762Z,23.77
2019-03-03T20:03:03.672Z,22.50
2019-03-03T20:05:33.134Z,27.47
2019-03-03T20:08:02.570Z,23.93
2019-03-03T20:10:32.040Z,23.47
2019-03-03T20:13:01.499Z,23.87
2019-03-03T20:15:30.938Z,23.00
2019-03-03T20:18:00.419Z,22.83
2019-03-03T20:20:29.866Z,22.67
2019-03-03T20:22:59.297Z,24.10
2019-03-03T20:25:29.147Z,24.47
2019-03-03T20:27:58.630Z,25.17
2019-03-03T20:30:28.048Z,25.13
2019-03-03T20:32:57.534Z,24.17
2019-03-03T20:35:27.038Z,23.63
2019-03-03T20:37:56.470Z,25.37
2019-03-03T20:40:25.920Z,27.07
2019-03-03T20:42:55.383Z,26.37
2019-03-03T20:45:25.267Z,28.93
2019-03-03T20:47:54.756Z,25.13
2019-03-03T20:50:24.397Z,26.63
2019-03-03T20:52:53.843Z,25.43
2019-03-03T20:55:26.911Z,22.23
2019-03-03T20:57:56.394Z,24.37
2019-03-03T21:00:26.519Z,28.40
2019-03-03T21:02:56.586Z,27.03
2019-03-03T21:05:26.020Z,23.50
2019-03-03T21:07:55.473Z,27.10
2019-03-03T21:10:24.976Z,25.07
2019-03-03T21:12:54.396Z,23.23
2019-03-03T21:15:23.863Z,22.17
2019-03-03T21:17:53.392Z,23.30
2019-03-03T21:20:23.042Z,24.70
2019-03-03T21:22:52.495Z,24.20
2019-03-03T21:25:22.010Z,25.50
2019-03-03T21:27:51.480Z,25.90
2019-03-03T21:30:22.558Z,23.13
2019-03-03T21:32:52.057Z,23.17
2019-03-03T21:35:21.635Z,21.17
2019-03-03T21:37:51.073Z,20.43
2019-03-03T21:40:20.569Z,23.27
2019-03-03T21:42:50.016Z,21.70
2019-03-03T21:45:20.007Z,22.10
2019-03-03T21:47:49.407Z,22.03
2019-03-03T21:50:20.539Z,23.57
2019-03-03T21:52:49.966Z,20.53
2019-03-03T21:55:19.630Z,21.47
2019-03-03T21:57:49.171Z,22.07
2019-03-03T22:00:32.477Z,21.10
2019-03-03T22:03:01.950Z,20.47
2019-03-03T22:05:31.381Z,21.43
2019-03-03T22:08:00.886Z,21.17
2019-03-03T22:10:30.890Z,22.43
2019-03-03T22:13:05.505Z,21.07
2019-03-03T22:15:35.025Z,20.80
2019-03-03T22:18:04.549Z,20.03
2019-03-03T22:20:34.124Z,20.37
2019-03-03T22:23:03.622Z,20.70
2019-03-03T22:25:33.091Z,20.43
2019-03-03T22:28:02.658Z,20.00
2019-03-03T22:30:32.113Z,19.37
2019-03-03T22:33:01.566Z,19.23
2019-03-03T22:35:31.078Z,18.37
2019-03-03T22:38:00.538Z,20.03
2019-03-03T22:40:29.998Z,20.53
2019-03-03T22:42:59.510Z,20.17
2019-03-03T22:45:28.942Z,20.33
2019-03-03T22:47:58.418Z,20.67
2019-03-03T22:50:27.901Z,21.07
2019-03-03T22:52:57.385Z,21.53
2019-03-03T22:55:26.828Z,21.97
2019-03-03T22:57:56.312Z,21.37
2019-03-03T23:00:44.939Z,21.03
2019-03-03T23:03:17.515Z,20.93
2019-03-03T23:06:46.022Z,21.63
2019-03-03T23:10:02.488Z,20.63
2019-03-03T23:12:56.414Z,21.00
2019-03-03T23:16:06.847Z,21.57
2019-03-03T23:19:20.714Z,20.57
2019-03-03T23:23:01.920Z,22.73
2019-03-03T23:25:59.802Z,23.07
2019-03-03T23:28:29.232Z,24.03
2019-03-03T23:30:59.044Z,24.17
2019-03-03T23:33:28.492Z,24.73
2019-03-03T23:35:57.935Z,23.47
2019-03-03T23:38:27.748Z,24.47
2019-03-03T23:40:57.185Z,24.30
2019-03-03T23:43:26.632Z,24.53
2019-03-03T23:45:56.297Z,22.43
2019-03-03T23:48:25.749Z,24.43
2019-03-03T23:50:55.190Z,24.33
2019-03-03T23:53:25.184Z,25.37
2019-03-03T23:55:54.601Z,23.63
2019-03-03T23:58:24.054Z,23.47
